Time;durP1;ratioP1;P1;durP2;ratioP2;P2;SDS_P1;SDS_P2;PMS_P1;PMS_P2;Temp;Humidity;BMP_temperature;BMP_pressure;BME280_temperature;BME280_humidity;BME280_pressure;Samples;Min_cycle;Max_cycle;Signal;HPM_P1;HPM_P2
2022/10/03 05:05:46;;;;;;;11.05;3.03;;;;;;;10.61;95.99;102580.81;5017786;28;20075;-75
2022/10/03 05:08:44;;;;;;;9.57;3.05;;;;;;;10.67;95.34;102589.84;5022375;28;20068;-75
2022/10/03 05:11:35;;;;;;;10.75;3.45;;;;;;;10.58;95.38;102601.06;5014731;28;20060;-75
2022/10/03 05:14:35;;;;;;;12.10;3.17;;;;;;;10.41;97.23;102601.16;5087242;22;20055;-74
2022/10/03 05:17:07;;;;;;;11.32;3.92;;;;;;;10.47;97.43;102608.19;5054853;28;20106;-74
2022/10/03 05:20:13;;;;;;;8.45;2.72;;;;;;;10.37;97.78;102604.63;5049878;28;20509;-75
2022/10/03 05:23:03;;;;;;;13.30;3.67;;;;;;;10.33;98.43;102612.03;5057510;28;20119;-75
2022/10/03 05:25:52;;;;;;;6.68;3.80;;;;;;;10.42;97.56;102614.81;5058432;28;20075;-75
2022/10/03 05:28:37;;;;;;;11.02;2.88;;;;;;;10.31;98.31;102617.16;5057272;28;20487;-75
2022/10/03 05:31:21;;;;;;;8.85;2.78;;;;;;;10.43;97.58;102624.03;5059596;28;20468;-75
2022/10/03 05:34:01;;;;;;;12.27;2.90;;;;;;;10.44;97.25;102622.88;5052447;28;20028;-75
2022/10/03 05:36:35;;;;;;;9.32;3.00;;;;;;;10.50;97.15;102625.16;5056124;28;20099;-75
2022/10/03 05:39:26;;;;;;;5.22;2.90;;;;;;;10.49;96.84;102631.09;5050177;28;20107;-74
2022/10/03 05:42:02;;;;;;;10.32;2.83;;;;;;;10.47;96.90;102625.00;5039296;28;20450;-76
2022/10/03 05:44:42;;;;;;;11.52;3.20;;;;;;;10.41;97.73;102631.94;5041727;28;20025;-75
2022/10/03 05:47:44;;;;;;;10.18;3.03;;;;;;;10.37;97.23;102631.78;5055163;28;20044;-75
2022/10/03 05:50:28;;;;;;;11.85;3.30;;;;;;;10.32;98.00;102629.97;5057047;28;20031;-75
2022/10/03 05:53:37;;;;;;;9.07;3.35;;;;;;;10.36;97.68;102633.75;5057773;28;20050;-76
2022/10/03 05:56:40;;;;;;;9.55;3.72;;;;;;;10.36;97.97;102636.56;5058479;28;20058;-76
2022/10/03 05:59:08;;;;;;;7.82;3.42;;;;;;;10.46;96.32;102640.97;5046912;28;20087;-76
2022/10/03 06:01:50;;;;;;;12.20;2.92;;;;;;;10.22;98.71;102638.69;5017460;28;20223;-76
2022/10/03 06:04:39;;;;;;;6.63;3.53;;;;;;;10.23;99.20;102637.56;5024127;28;20108;-76
2022/10/03 06:07:16;;;;;;;9.43;2.88;;;;;;;10.38;97.61;102634.25;5010782;28;20492;-77
2022/10/03 06:10:24;;;;;;;6.88;2.78;;;;;;;10.35;98.31;102639.69;5010231;28;20524;-76
2022/10/03 06:13:18;;;;;;;7.43;3.15;;;;;;;10.55;97.22;102644.56;4954191;28;20522;-75
2022/10/03 06:16:23;;;;;;;4.32;2.65;;;;;;;10.76;96.33;102647.44;5029811;28;20448;-76
2022/10/03 06:19:19;;;;;;;9.52;3.85;;;;;;;10.60;96.85;102646.34;4996890;28;20036;-75
2022/10/03 06:22:09;;;;;;;8.80;3.53;;;;;;;10.36;98.64;102647.75;5016784;28;20032;-75
2022/10/03 06:25:12;;;;;;;11.45;3.15;;;;;;;10.37;98.61;102655.00;5014514;28;20052;-76
2022/10/03 06:27:56;;;;;;;;;;;;;;;10.35;98.83;102651.72;5040956;28;20119;-77
2022/10/03 06:30:59;;;;;;;13.27;4.18;;;;;;;10.44;98.99;102660.09;5035758;28;20342;-76
2022/10/03 06:33:54;;;;;;;11.90;3.60;;;;;;;10.33;99.29;102662.44;5040471;28;20032;-75
2022/10/03 06:36:51;;;;;;;8.18;3.30;;;;;;;10.44;98.27;102664.88;5036395;28;20159;-77
2022/10/03 06:39:22;;;;;;;12.02;3.20;;;;;;;10.50;98.33;102666.34;5038245;28;20025;-76
2022/10/03 06:42:14;;;;;;;8.63;3.30;;;;;;;10.39;99.36;102657.44;5034449;28;20060;-76
2022/10/03 06:44:49;;;;;;;6.43;2.60;;;;;;;10.52;98.02;102664.00;5024375;28;20504;-76
2022/10/03 06:47:30;;;;;;;8.20;3.55;;;;;;;10.52;97.20;102659.25;5027049;28;20836;-76
2022/10/03 06:50:11;;;;;;;11.50;3.47;;;;;;;10.59;97.91;102658.72;5015831;28;20384;-76
2022/10/03 06:53:10;;;;;;;8.68;2.60;;;;;;;10.52;97.84;102655.59;5040211;28;20040;-76
2022/10/03 06:56:03;;;;;;;7.38;2.95;;;;;;;10.57;99.38;102669.44;5038030;28;20158;-76
2022/10/03 06:58:34;;;;;;;;;;;;;;;10.52;100.00;102656.44;5044174;28;20028;-73
2022/10/03 07:01:34;;;;;;;6.38;2.35;;;;;;;10.60;98.54;102668.75;5021873;28;19916;-76
2022/10/03 07:04:23;;;;;;;7.53;2.60;;;;;;;10.50;100.00;102669.16;5035492;28;20593;-76
2022/10/03 07:07:10;;;;;;;5.13;2.42;;;;;;;10.55;99.98;102663.34;5029339;28;20597;-77
2022/10/03 07:09:41;;;;;;;5.25;2.80;;;;;;;10.54;99.69;102664.50;5036587;28;20037;-77
2022/10/03 07:12:37;;;;;;;9.80;3.33;;;;;;;10.54;100.00;102664.50;5031611;28;20055;-75
2022/10/03 07:15:39;;;;;;;8.80;3.40;;;;;;;10.52;100.00;102669.59;5032049;28;20365;-77
2022/10/03 07:18:17;;;;;;;9.52;3.10;;;;;;;10.56;100.00;102668.63;5022254;28;20021;-76
2022/10/03 07:21:27;;;;;;;6.57;2.75;;;;;;;10.65;97.89;102677.00;5028144;28;21397;-76
2022/10/03 07:24:01;;;;;;;12.57;2.78;;;;;;;10.68;100.00;102673.50;4936688;28;20046;-75
2022/10/03 07:26:56;;;;;;;8.15;3.50;;;;;;;10.92;100.00;102680.50;5016180;28;20045;-77
2022/10/03 07:29:40;;;;;;;11.70;2.92;;;;;;;10.78;100.00;102687.16;5027868;28;20434;-74
2022/10/03 07:32:23;;;;;;;7.32;3.17;;;;;;;10.77;100.00;102679.91;5026963;28;20035;-76
2022/10/03 07:35:07;;;;;;;;;;;;;;;10.80;100.00;102686.00;5038313;28;20064;-73
2022/10/03 07:40:45;;;;;;;10.30;4.10;;;;;;;10.73;100.00;102700.50;5026466;28;20037;-75
2022/10/03 07:43:29;;;;;;;14.57;3.97;;;;;;;10.74;100.00;102696.56;5018732;28;20036;-75
2022/10/03 07:46:21;;;;;;;9.57;3.15;;;;;;;10.78;100.00;102698.34;5031054;28;20040;-76
2022/10/03 07:49:02;;;;;;;11.23;3.20;;;;;;;10.88;100.00;102707.53;5025675;28;20037;-75
2022/10/03 07:51:32;;;;;;;10.50;3.17;;;;;;;10.92;100.00;102709.34;5012565;28;20033;-75
2022/10/03 07:54:13;;;;;;;15.75;3.78;;;;;;;11.02;100.00;102708.16;5033580;28;20044;-76
2022/10/03 07:57:06;;;;;;;18.17;4.70;;;;;;;11.02;100.00;102715.75;5032194;28;20033;-75
2022/10/03 07:59:59;;;;;;;9.25;3.58;;;;;;;11.01;100.00;102714.09;5028061;28;20029;-75
2022/10/03 08:02:47;;;;;;;12.10;2.58;;;;;;;11.05;100.00;102718.69;5012390;28;20079;-76
2022/10/03 08:05:31;;;;;;;12.52;2.80;;;;;;;11.13;100.00;102722.59;5032090;28;20346;-75
2022/10/03 08:08:11;;;;;;;6.60;2.72;;;;;;;11.18;100.00;102723.25;5033785;28;20423;-75
2022/10/03 08:11:11;;;;;;;16.17;5.05;;;;;;;11.39;100.00;102723.31;5037836;28;20476;-76
2022/10/03 08:13:54;;;;;;;10.18;2.70;;;;;;;11.30;100.00;102733.75;5034138;28;20507;-76
2022/10/03 08:16:54;;;;;;;10.57;3.78;;;;;;;11.51;100.00;102725.38;5028767;28;20033;-75
2022/10/03 08:19:31;;;;;;;5.70;2.53;;;;;;;11.56;100.00;102733.59;5038128;28;20037;-75
2022/10/03 08:22:15;;;;;;;11.93;3.67;;;;;;;11.64;100.00;102728.25;5024831;28;20804;-74
2022/10/03 08:24:59;;;;;;;14.50;3.58;;;;;;;11.71;100.00;102725.75;5026784;28;20072;-75
2022/10/03 08:27:51;;;;;;;12.38;3.28;;;;;;;11.73;100.00;102727.03;5038144;28;20621;-74
2022/10/03 08:30:18;;;;;;;10.73;3.63;;;;;;;11.78;100.00;102740.03;5044712;28;20033;-74
2022/10/03 08:33:08;;;;;;;10.90;3.13;;;;;;;11.77;100.00;102733.63;5039090;28;20292;-74
2022/10/03 08:35:34;;;;;;;9.02;3.92;;;;;;;11.89;100.00;102732.91;5036831;28;20483;-74
2022/10/03 08:38:18;;;;;;;18.20;3.67;;;;;;;12.25;100.00;102731.47;5035118;28;20021;-74
2022/10/03 08:41:05;;;;;;;12.57;3.00;;;;;;;12.14;100.00;102727.41;5035562;28;20029;-74
2022/10/03 08:44:06;;;;;;;9.77;3.25;;;;;;;12.28;100.00;102729.94;5024853;28;20120;-74
2022/10/03 08:47:02;;;;;;;10.73;3.17;;;;;;;12.33;100.00;102726.91;5042663;28;20212;-74
2022/10/03 08:49:58;;;;;;;18.35;3.13;;;;;;;12.62;100.00;102734.38;5044578;28;20110;-75
2022/10/03 08:52:59;;;;;;;8.40;3.92;;;;;;;12.56;100.00;102730.16;5038211;28;20336;-75
2022/10/03 08:55:48;;;;;;;10.73;3.17;;;;;;;12.68;100.00;102735.81;5036698;28;20079;-76
2022/10/03 08:58:53;;;;;;;14.93;3.30;;;;;;;12.73;100.00;102734.75;5046550;28;20102;-74
2022/10/03 09:01:37;;;;;;;13.23;2.97;;;;;;;12.73;100.00;102724.38;5046655;28;20064;-74
2022/10/03 09:04:38;;;;;;;16.50;3.95;;;;;;;12.97;100.00;102734.00;5041642;28;20045;-75
2022/10/03 09:07:28;;;;;;;12.52;2.53;;;;;;;12.84;97.93;102735.13;5020202;28;20030;-74
2022/10/03 09:10:12;;;;;;;11.60;2.47;;;;;;;13.09;98.19;102734.03;5028719;28;20503;-75
2022/10/03 09:13:25;;;;;;;8.98;3.10;;;;;;;13.14;100.00;102733.78;5041897;28;20796;-75
2022/10/03 09:16:24;;;;;;;16.33;3.38;;;;;;;13.36;100.00;102734.50;5034218;28;20044;-75
2022/10/03 09:19:34;;;;;;;9.23;2.30;;;;;;;13.28;100.00;102732.59;5044063;28;20033;-76
2022/10/03 09:21:59;;;;;;;11.15;1.95;;;;;;;13.26;97.33;102735.78;5018924;28;20071;-74
2022/10/03 09:24:59;;;;;;;11.30;2.50;;;;;;;13.42;100.00;102727.47;5042558;28;20455;-75
2022/10/03 09:27:49;;;;;;;16.15;3.58;;;;;;;13.41;98.88;102725.84;5034722;28;20082;-74
2022/10/03 09:30:36;;;;;;;8.68;2.10;;;;;;;13.41;99.33;102731.47;5042179;28;20028;-74
2022/10/03 09:33:40;;;;;;;7.90;1.95;;;;;;;13.70;99.21;102736.00;5039675;28;20079;-73
2022/10/03 09:36:48;;;;;;;13.32;2.45;;;;;;;13.80;98.45;102731.88;5035214;28;20052;-75
2022/10/03 09:39:34;;;;;;;8.32;1.90;;;;;;;13.71;94.94;102726.38;5044024;28;20047;-74
2022/10/03 09:41:59;;;;;;;14.10;3.15;;;;;;;14.03;94.59;102735.81;5033989;28;20029;-75
2022/10/03 09:44:33;;;;;;;9.77;2.88;;;;;;;14.22;93.02;102731.53;5041907;28;20035;-74
2022/10/03 09:47:26;;;;;;;9.88;1.80;;;;;;;14.14;93.72;102730.47;5035113;28;20033;-74
2022/10/03 09:50:07;;;;;;;;;;;;;;;14.21;90.33;102733.53;5039533;28;20029;-75
2022/10/03 09:53:10;;;;;;;11.27;2.25;;;;;;;13.78;90.65;102729.41;5037368;28;19921;-75
2022/10/03 09:56:00;;;;;;;10.17;3.10;;;;;;;13.91;91.75;102730.19;5034210;28;20029;-74
2022/10/03 09:59:00;;;;;;;7.35;2.15;;;;;;;14.44;92.10;102728.16;5033328;28;20025;-75
2022/10/03 10:01:53;;;;;;;10.73;1.63;;;;;;;14.14;90.88;102729.66;5028881;28;20032;-76
2022/10/03 10:04:40;;;;;;;9.02;2.60;;;;;;;14.43;91.31;102722.84;5041049;28;20041;-75
2022/10/03 10:07:44;;;;;;;5.82;1.38;;;;;;;14.23;88.53;102719.91;5040380;28;20555;-74
2022/10/03 10:10:46;;;;;;;8.73;2.00;;;;;;;14.71;88.92;102719.22;5036031;28;20478;-75
2022/10/03 10:13:15;;;;;;;8.45;2.00;;;;;;;14.79;88.04;102721.84;5035924;28;20048;-76
2022/10/03 10:16:02;;;;;;;11.10;2.55;;;;;;;14.51;86.96;102710.63;5037929;28;20035;-75
2022/10/03 10:18:47;;;;;;;10.15;3.38;;;;;;;14.67;87.77;102712.66;5029307;28;20052;-76
2022/10/03 10:21:50;;;;;;;9.60;1.75;;;;;;;14.81;87.78;102708.22;5037935;28;20040;-74
2022/10/03 10:24:45;;;;;;;9.00;2.20;;;;;;;14.54;86.66;102706.25;5028318;28;20028;-75
2022/10/03 10:27:49;;;;;;;6.95;1.55;;;;;;;14.74;84.93;102710.06;5036834;28;20503;-74
2022/10/03 10:30:39;;;;;;;7.93;2.03;;;;;;;14.64;86.74;102703.75;5019479;28;20041;-76
2022/10/03 10:33:38;;;;;;;12.30;1.80;;;;;;;14.50;85.51;102708.16;5028137;28;20037;-76
2022/10/03 10:36:31;;;;;;;6.82;1.30;;;;;;;14.71;86.68;102705.13;5033521;28;20036;-74
2022/10/03 10:38:58;;;;;;;5.97;1.70;;;;;;;14.92;84.67;102708.50;5042036;28;20060;-75
2022/10/03 10:41:30;;;;;;;5.93;1.00;;;;;;;14.82;84.28;102701.41;5019789;28;20116;-75
2022/10/03 10:44:17;;;;;;;8.20;1.83;;;;;;;15.09;85.59;102704.47;5041356;28;20048;-76
2022/10/03 10:47:16;;;;;;;12.07;1.83;;;;;;;14.89;84.76;102711.25;5036055;28;20535;-75
2022/10/03 10:50:19;;;;;;;4.60;1.05;;;;;;;15.16;84.50;102706.69;5005175;28;20041;-75
2022/10/03 10:53:26;;;;;;;9.85;1.75;;;;;;;15.32;84.43;102715.13;5040965;28;20028;-75
2022/10/03 10:56:22;;;;;;;6.40;1.98;;;;;;;15.06;86.64;102704.41;5036639;28;20476;-75
2022/10/03 10:59:24;;;;;;;9.90;1.85;;;;;;;15.18;82.96;102704.31;5033494;28;20043;-75
2022/10/03 11:02:26;;;;;;;15.23;2.00;;;;;;;15.39;81.60;102704.00;5035494;28;20036;-75
2022/10/03 11:05:03;;;;;;;10.57;1.73;;;;;;;15.47;81.63;102710.63;5027347;28;20025;-74
2022/10/03 11:07:44;;;;;;;9.10;2.50;;;;;;;15.63;81.54;102706.59;5032855;28;20052;-75
2022/10/03 11:10:34;;;;;;;11.48;1.70;;;;;;;15.61;82.76;102706.13;5036063;28;20030;-75
2022/10/03 11:13:08;;;;;;;4.90;1.30;;;;;;;15.29;85.36;102704.59;5034887;28;20520;-76
2022/10/03 11:16:34;;;;;;;8.65;1.40;;;;;;;15.52;83.04;102701.91;5039103;28;20028;-75
2022/10/03 11:19:25;;;;;;;10.73;1.30;;;;;;;15.33;79.52;102708.31;5037912;28;20075;-75
2022/10/03 11:22:22;;;;;;;6.82;1.40;;;;;;;15.70;79.73;102719.22;5038461;28;20472;-75
2022/10/03 11:25:03;;;;;;;12.80;1.95;;;;;;;15.44;81.00;102712.19;5028526;28;20399;-75
2022/10/03 11:27:48;;;;;;;5.40;1.38;;;;;;;15.44;82.37;102712.19;5016685;28;20036;-75
2022/10/03 11:31:00;;;;;;;11.27;1.98;;;;;;;15.19;81.52;102712.41;5037294;28;20029;-75
2022/10/03 11:34:08;;;;;;;3.53;1.67;;;;;;;15.56;80.67;102702.81;4994251;28;20499;-75
2022/10/03 11:36:55;;;;;;;4.53;1.40;;;;;;;15.44;81.27;102706.56;5017707;28;20037;-76
2022/10/03 11:39:46;;;;;;;11.20;1.60;;;;;;;15.91;81.23;102711.25;5033303;28;20111;-75
2022/10/03 11:42:19;;;;;;;10.27;1.55;;;;;;;15.70;82.24;102691.81;5022997;28;20036;-74
2022/10/03 11:44:59;;;;;;;5.03;1.52;;;;;;;15.44;82.08;102703.72;5040376;28;20396;-75
2022/10/03 11:47:36;;;;;;;6.57;1.70;;;;;;;15.49;82.62;102703.44;5033418;28;20033;-75
2022/10/03 11:50:26;;;;;;;10.60;1.60;;;;;;;15.64;83.59;102704.56;5034168;28;20029;-74
2022/10/03 11:53:14;;;;;;;7.60;2.65;;;;;;;15.66;83.61;102705.03;5018084;28;20036;-76
2022/10/03 11:55:47;;;;;;;11.50;1.77;;;;;;;15.62;82.45;102696.50;5030449;28;20056;-75
2022/10/03 11:58:15;;;;;;;6.57;2.10;;;;;;;15.56;81.22;102700.78;5040173;28;20025;-75
2022/10/03 12:00:43;;;;;;;7.63;2.10;;;;;;;15.62;82.42;102699.31;5024812;28;20029;-75
2022/10/03 12:03:19;;;;;;;9.93;1.45;;;;;;;15.53;85.06;102706.34;5036534;28;20047;-75
2022/10/03 12:09:29;;;;;;;6.68;1.58;;;;;;;15.85;82.66;102704.25;5038486;28;20051;-75
2022/10/03 12:12:01;;;;;;;6.35;1.50;;;;;;;15.62;84.33;102701.31;5040653;28;20933;-74
2022/10/03 12:14:37;;;;;;;5.80;1.33;;;;;;;15.68;83.63;102699.03;5033006;28;20037;-75
2022/10/03 12:17:30;;;;;;;9.38;2.08;;;;;;;15.57;85.63;102693.94;5031938;28;20028;-76
2022/10/03 12:20:17;;;;;;;13.18;2.75;;;;;;;15.78;84.14;102698.47;5019415;28;20116;-76
2022/10/03 12:22:48;;;;;;;5.88;2.13;;;;;;;15.72;84.73;102695.13;5040074;28;20093;-75
2022/10/03 12:25:30;;;;;;;8.60;1.67;;;;;;;15.67;83.75;102697.41;5041282;28;20116;-75
2022/10/03 12:28:06;;;;;;;11.35;2.17;;;;;;;15.83;83.90;102686.88;5030209;28;20057;-75
2022/10/03 12:30:53;;;;;;;6.43;1.70;;;;;;;15.73;84.16;102685.47;5036797;28;20131;-75
2022/10/03 12:33:40;;;;;;;7.38;1.75;;;;;;;15.41;85.37;102685.53;5042001;28;20108;-75
2022/10/03 12:36:33;;;;;;;14.18;2.30;;;;;;;16.04;81.78;102690.16;5035356;28;20060;-75
2022/10/03 12:39:18;;;;;;;16.00;2.42;;;;;;;16.03;84.40;102688.53;5017966;28;20464;-75
2022/10/03 12:42:15;;;;;;;9.95;2.17;;;;;;;15.88;83.44;102680.13;5035032;28;20029;-76
2022/10/03 12:44:58;;;;;;;9.05;1.98;;;;;;;15.75;83.73;102676.63;5000212;28;20038;-75
2022/10/03 12:47:44;;;;;;;;;;;;;;;15.85;83.28;102682.50;5034317;28;20037;-76
2022/10/03 12:50:30;;;;;;;6.90;1.52;;;;;;;15.99;81.79;102681.97;5032005;28;19968;-75
2022/10/03 12:53:18;;;;;;;9.05;2.00;;;;;;;16.09;81.57;102674.13;5017263;28;20018;-75
2022/10/03 12:56:03;;;;;;;8.68;2.90;;;;;;;16.09;79.42;102674.13;4993608;28;20076;-75
2022/10/03 12:58:45;;;;;;;8.75;2.15;;;;;;;16.31;79.31;102667.69;5045089;28;20025;-76
2022/10/03 13:01:48;;;;;;;7.03;1.75;;;;;;;16.41;80.54;102666.25;5021012;28;20467;-76
2022/10/03 13:04:51;;;;;;;7.70;1.90;;;;;;;16.23;79.32;102668.72;5039525;28;20043;-75
2022/10/03 13:07:30;;;;;;;6.75;1.90;;;;;;;16.55;77.04;102668.50;5045626;28;20037;-75
2022/10/03 13:10:02;;;;;;;8.57;2.00;;;;;;;16.51;75.42;102671.28;5034521;28;20496;-75
2022/10/03 13:12:39;;;;;;;6.82;1.60;;;;;;;16.60;75.86;102671.03;5030039;28;20052;-75
2022/10/03 13:15:43;;;;;;;7.82;1.30;;;;;;;16.58;74.57;102662.13;5035368;28;20029;-76
2022/10/03 13:18:25;;;;;;;5.70;1.38;;;;;;;16.56;75.84;102667.34;4973271;28;20124;-76
2022/10/03 13:21:17;;;;;;;8.05;1.88;;;;;;;16.26;74.01;102665.16;5015000;28;20035;-76
2022/10/03 13:23:46;;;;;;;9.60;1.65;;;;;;;16.24;74.92;102670.38;5003404;28;20051;-75
2022/10/03 13:26:32;;;;;;;6.00;1.52;;;;;;;16.34;76.52;102658.47;5023800;28;20498;-76
2022/10/03 13:29:08;;;;;;;5.35;1.80;;;;;;;16.34;75.52;102657.63;5035364;28;20060;-75
2022/10/03 13:31:39;;;;;;;7.85;1.60;;;;;;;16.57;74.37;102654.81;5021184;28;20407;-75
2022/10/03 13:34:22;;;;;;;5.85;1.77;;;;;;;16.49;72.05;102648.25;5042595;28;20377;-76
2022/10/03 13:37:08;;;;;;;7.63;1.30;;;;;;;16.46;73.78;102648.97;5033168;28;20025;-75
2022/10/03 13:39:46;;;;;;;9.63;1.92;;;;;;;16.37;72.05;102652.06;5036516;28;20079;-75
2022/10/03 13:42:30;;;;;;;7.13;2.97;;;;;;;16.42;74.58;102648.94;5035024;28;20712;-75
2022/10/03 13:45:02;;;;;;;10.10;1.73;;;;;;;16.40;73.97;102654.16;5037497;28;20021;-75
2022/10/03 13:47:51;;;;;;;10.00;2.15;;;;;;;16.34;72.59;102650.00;5021175;28;20033;-76
2022/10/03 13:50:24;;;;;;;8.63;1.50;;;;;;;16.30;75.21;102649.09;5039164;28;20128;-75
2022/10/03 13:53:11;;;;;;;8.90;1.83;;;;;;;16.30;74.29;102639.81;5035534;28;20031;-75
2022/10/03 13:55:50;;;;;;;12.20;1.70;;;;;;;16.31;73.30;102653.53;5041800;28;20118;-75
2022/10/03 13:58:31;;;;;;;7.88;2.00;;;;;;;16.33;73.80;102650.34;5041984;28;20045;-75
2022/10/03 14:01:05;;;;;;;9.48;1.98;;;;;;;16.32;74.38;102646.72;5040613;28;20021;-75
2022/10/03 14:03:44;;;;;;;7.30;1.95;;;;;;;16.23;74.58;102640.47;5029093;28;20045;-75
2022/10/03 14:06:23;;;;;;;10.02;1.85;;;;;;;16.28;74.04;102640.19;5037999;28;20453;-75
2022/10/03 14:09:11;;;;;;;8.52;1.92;;;;;;;16.30;74.80;102640.63;5031122;28;20025;-75
2022/10/03 14:12:02;;;;;;;5.20;1.20;;;;;;;16.10;73.84;102630.53;5037220;28;20092;-75
2022/10/03 14:14:38;;;;;;;9.40;1.50;;;;;;;16.06;75.37;102624.81;5032982;28;20033;-75
2022/10/03 14:17:03;;;;;;;3.95;1.30;;;;;;;15.93;76.52;102637.47;5042245;28;20024;-75
2022/10/03 14:19:43;;;;;;;10.25;1.40;;;;;;;15.88;75.60;102643.44;5024526;28;20036;-75
2022/10/03 14:22:31;;;;;;;6.15;1.50;;;;;;;15.81;77.28;102641.25;5045894;28;20056;-76
2022/10/03 14:25:10;;;;;;;5.35;1.58;;;;;;;15.74;78.21;102639.09;5045678;28;20083;-75
2022/10/03 14:28:06;;;;;;;8.32;1.77;;;;;;;15.78;79.76;102631.53;5040357;28;20029;-75
2022/10/03 14:30:52;;;;;;;6.32;1.50;;;;;;;15.71;81.67;102630.53;5039746;28;20057;-75
2022/10/03 14:33:28;;;;;;;4.38;1.50;;;;;;;15.71;78.16;102617.25;5038194;28;20074;-75
2022/10/03 14:36:27;;;;;;;6.45;1.58;;;;;;;15.71;78.58;102614.41;5020274;28;20450;-75
2022/10/03 14:39:31;;;;;;;6.72;1.50;;;;;;;15.80;78.78;102620.69;5043953;28;20547;-75
2022/10/03 14:42:19;;;;;;;8.23;1.75;;;;;;;15.90;81.75;102612.81;5040352;28;20052;-76
2022/10/03 14:44:52;;;;;;;5.00;1.65;;;;;;;15.91;76.53;102601.13;5027237;28;20037;-75
2022/10/03 14:47:18;;;;;;;6.80;1.58;;;;;;;15.94;75.80;102606.03;5042131;28;20031;-75
2022/10/03 14:50:04;;;;;;;3.03;1.30;;;;;;;15.97;79.25;102602.44;5031435;28;20037;-75
2022/10/03 14:52:33;;;;;;;8.07;1.48;;;;;;;15.94;78.26;102603.22;5021175;28;20024;-75
2022/10/03 14:55:09;;;;;;;6.95;1.42;;;;;;;15.95;76.64;102596.38;5022122;28;20392;-74
2022/10/03 14:58:04;;;;;;;5.95;1.73;;;;;;;16.02;74.92;102599.34;5025647;28;20017;-75
2022/10/03 15:00:54;;;;;;;7.07;1.52;;;;;;;16.02;76.34;102590.03;5013406;28;20029;-75
2022/10/03 15:03:27;;;;;;;8.57;2.17;;;;;;;15.99;76.37;102591.59;5013897;28;20029;-75
2022/10/03 15:05:55;;;;;;;6.95;1.23;;;;;;;15.99;74.53;102590.78;5032365;28;20035;-75
2022/10/03 15:08:29;;;;;;;7.70;1.67;;;;;;;15.98;77.53;102595.63;5025718;28;20051;-77
2022/10/03 15:10:57;;;;;;;8.95;1.60;;;;;;;15.96;80.62;102592.38;5019240;28;20112;-75
2022/10/03 15:13:26;;;;;;;6.45;1.92;;;;;;;15.81;78.34;102588.44;5023136;28;20107;-75
2022/10/03 15:15:54;;;;;;;13.27;1.90;;;;;;;15.80;80.77;102589.63;5008351;28;20044;-76
2022/10/03 15:18:23;;;;;;;7.82;2.00;;;;;;;15.69;80.83;102582.09;5013875;28;20033;-76
2022/10/03 15:20:52;;;;;;;6.50;2.10;;;;;;;15.75;81.51;102592.75;5018611;28;20025;-75
2022/10/03 15:23:26;;;;;;;11.27;2.85;;;;;;;15.80;81.86;102588.81;5014426;28;20472;-76
2022/10/03 15:25:55;;;;;;;7.97;1.52;;;;;;;15.74;79.19;102581.81;5010152;28;20068;-76
2022/10/03 15:28:35;;;;;;;16.08;3.20;;;;;;;15.72;81.61;102572.91;5009884;28;20025;-77
2022/10/03 15:31:14;;;;;;;7.30;2.00;;;;;;;15.74;85.48;102579.81;5011189;28;20068;-77
2022/10/03 15:33:42;;;;;;;9.13;1.80;;;;;;;15.64;80.79;102581.22;5012412;28;20029;-77
2022/10/03 15:36:24;;;;;;;8.27;1.58;;;;;;;15.62;81.04;102577.94;5011501;28;20033;-77
2022/10/03 15:38:56;;;;;;;10.60;2.10;;;;;;;15.67;84.37;102570.38;5017721;28;20112;-76
2022/10/03 15:41:35;;;;;;;8.23;1.75;;;;;;;15.64;81.96;102584.03;5019583;28;20029;-76
2022/10/03 15:44:37;;;;;;;8.73;1.75;;;;;;;15.62;82.35;102582.75;5016718;28;20033;-77
2022/10/03 15:47:11;;;;;;;6.85;2.17;;;;;;;15.58;86.75;102571.41;5015319;28;20075;-77
2022/10/03 15:49:42;;;;;;;7.55;1.70;;;;;;;15.52;88.26;102574.91;5021105;28;20485;-77
2022/10/03 15:52:25;;;;;;;8.48;2.45;;;;;;;15.41;85.13;102571.81;5020110;28;20566;-77
2022/10/03 15:54:55;;;;;;;6.97;2.60;;;;;;;15.45;86.78;102575.53;5020913;28;20120;-77
2022/10/03 15:57:28;;;;;;;5.65;2.28;;;;;;;15.47;88.77;102570.34;5010380;28;20075;-77
2022/10/03 15:59:57;;;;;;;7.63;1.80;;;;;;;15.39;85.25;102563.75;5018398;28;20056;-76
2022/10/03 16:02:34;;;;;;;8.80;2.72;;;;;;;15.41;85.93;102566.19;5013700;28;20037;-77
2022/10/03 16:05:03;;;;;;;7.47;2.35;;;;;;;15.45;87.11;102556.63;5026615;28;20052;-77
2022/10/03 16:07:48;;;;;;;9.65;2.35;;;;;;;15.39;84.84;102560.09;5020574;28;20023;-77
2022/10/03 16:10:21;;;;;;;12.55;2.47;;;;;;;15.33;84.51;102555.97;5015356;28;20292;-77
2022/10/03 16:12:59;;;;;;;8.75;3.28;;;;;;;15.40;87.52;102542.00;5030479;28;20068;-77
2022/10/03 16:15:50;;;;;;;14.77;3.55;;;;;;;15.34;88.81;102551.94;5034602;28;20469;-77
2022/10/03 16:18:41;;;;;;;10.60;2.55;;;;;;;15.29;88.28;102546.59;4984265;28;20488;-76
2022/10/03 16:21:14;;;;;;;9.23;2.85;;;;;;;15.34;88.56;102547.09;5027859;28;20025;-76
2022/10/03 16:23:44;;;;;;;12.65;3.00;;;;;;;15.35;88.93;102545.13;5018122;28;20508;-76
2022/10/03 16:26:22;;;;;;;11.52;2.53;;;;;;;15.18;84.78;102547.19;5012221;28;20480;-76
2022/10/03 16:29:00;;;;;;;8.18;2.42;;;;;;;15.29;88.52;102543.78;5014650;28;20041;-76
2022/10/03 16:31:36;;;;;;;7.80;3.40;;;;;;;15.31;88.99;102547.84;5010618;28;20029;-76
2022/10/03 16:34:24;;;;;;;9.38;2.97;;;;;;;15.26;88.88;102536.84;5013524;28;20018;-76
2022/10/03 16:36:50;;;;;;;18.15;3.90;;;;;;;15.21;89.29;102546.41;5014184;28;20032;-76
2022/10/03 16:39:28;;;;;;;15.02;4.20;;;;;;;15.22;90.27;102530.31;5018751;28;20041;-76
2022/10/03 16:41:54;;;;;;;6.60;2.63;;;;;;;15.20;89.96;102539.16;5011907;28;20447;-76
2022/10/03 16:44:47;;;;;;;14.10;3.40;;;;;;;15.21;89.96;102529.50;5014452;28;20108;-77
2022/10/03 16:47:15;;;;;;;8.75;3.10;;;;;;;15.19;90.00;102523.41;5010538;28;20037;-76
2022/10/03 16:52:35;;;;;;;7.20;2.42;;;;;;;15.14;90.99;102520.91;5001503;28;20110;-75
2022/10/03 16:55:05;;;;;;;9.30;2.20;;;;;;;15.18;90.02;102521.78;5010360;28;20033;-76
2022/10/03 16:57:42;;;;;;;7.88;2.90;;;;;;;15.17;89.52;102517.31;5006673;28;20037;-76
2022/10/03 17:00:22;;;;;;;10.95;3.85;;;;;;;15.17;89.75;102517.31;5024079;28;20048;-75
2022/10/03 17:02:49;;;;;;;9.60;3.28;;;;;;;15.15;89.80;102514.06;5007630;28;20041;-76
2022/10/03 17:05:16;;;;;;;8.38;2.92;;;;;;;15.15;89.48;102505.59;5006286;28;20043;-76
2022/10/03 17:07:48;;;;;;;10.98;3.40;;;;;;;15.14;89.53;102512.44;5011081;28;20749;-76
2022/10/03 17:10:37;;;;;;;11.15;3.90;;;;;;;15.12;89.73;102509.16;5020668;28;20029;-76
2022/10/03 17:13:11;;;;;;;8.60;3.67;;;;;;;15.10;90.01;102514.34;5017589;28;20108;-76
2022/10/03 17:15:44;;;;;;;7.72;3.97;;;;;;;15.08;89.79;102507.47;5015408;28;20025;-76
2022/10/03 17:18:39;;;;;;;13.75;4.78;;;;;;;15.04;89.68;102507.38;5031287;28;20061;-76
2022/10/03 17:21:13;;;;;;;12.05;4.70;;;;;;;15.06;90.03;102510.63;5029901;28;20091;-76
2022/10/03 17:23:46;;;;;;;13.48;5.32;;;;;;;15.01;90.33;102502.44;5012319;28;20036;-77
2022/10/03 17:26:24;;;;;;;11.85;5.75;;;;;;;15.02;90.28;102509.75;5033820;28;20032;-75
2022/10/03 17:29:16;;;;;;;16.52;5.57;;;;;;;14.97;90.63;102508.03;5014260;28;20049;-75
2022/10/03 17:32:00;;;;;;;14.13;5.15;;;;;;;14.99;90.36;102510.50;5020990;28;20831;-76
2022/10/03 17:34:39;;;;;;;17.48;5.45;;;;;;;14.86;90.58;102511.78;5030225;28;20032;-76
2022/10/03 17:37:33;;;;;;;12.98;4.30;;;;;;;14.91;90.58;102498.22;5034383;28;20032;-76
2022/10/03 17:40:27;;;;;;;17.13;5.28;;;;;;;14.79;91.32;102496.34;5032659;28;20025;-77
2022/10/03 17:43:00;;;;;;;11.50;3.88;;;;;;;14.80;90.69;102506.44;5028225;28;20120;-78
2022/10/03 17:45:50;;;;;;;16.30;3.88;;;;;;;14.79;91.40;102507.63;5033650;28;20452;-77
2022/10/03 17:48:20;;;;;;;14.93;4.28;;;;;;;14.74;91.69;102505.09;5037942;28;20115;-76
2022/10/03 17:51:01;;;;;;;11.10;4.07;;;;;;;14.84;90.86;102514.97;5027596;28;20044;-76
2022/10/03 17:53:30;;;;;;;18.10;4.32;;;;;;;14.82;91.46;102517.34;5034130;28;20090;-77
2022/10/03 17:56:07;;;;;;;13.30;2.92;;;;;;;14.79;90.98;102521.72;5034480;28;20071;-77